Unity Village, Missouri
Current Conditions -  °F | °C
As of 8:53 PM on Wednesday 22 Oct 2014 (Local Time) from KLXT Reporting Station
Clear Clear  
Wind Chill: 63°   Ceiling: Unl
Heat Index: 63°   Visibility: 10mi
Dew Point: 50°   Wind: 8mph
Humidity: 63%   Direction: 140°SE
Pressure: 30.13"   Gusts: NA
Location:  38.9847°N, 94.3634°W
Report Text: KLXT 230153Z AUTO 14007KT 10SM CLR 17/10 A3013 RMK AO2 SLP200 T01720100
Loading
Personal Weather Stations






























Interactive Weather Map
Tropical Storm Tracking
New forecast layout! Learn more

10-Day Weather Forecast

Advertisements
Track Severe Weather on mobile